Arrington, Virginia
Current Conditions -  °F | °C
As of 5:55 PM on Monday 24 Nov 2014 (Local Time) from KW13 Reporting Station
Clear Clear  
Wind Chill: 17°   Ceiling: Unl
Heat Index: 17°   Visibility: 10mi
Dew Point: 10°   Wind: 12mph
Humidity: 64%   Direction: 180°S
Pressure: 29.7"   Gusts: NA
Location:  37.68°N, 78.9°W
Report Text: KW13 242255Z AUTO 18010KT 10SM CLR 17/10 A2970 RMK AO1 T01710103
Loading
Personal Weather Stations






























Interactive Weather Map New forecast layout! Learn more

10-Day Weather Forecast

Advertisements
Track Severe Weather on mobile